createdAt,value
2023-04-20T00:00:44.540Z,100.00
2023-04-20T00:03:22.092Z,100.00
2023-04-20T00:05:51.220Z,100.00
2023-04-20T00:08:23.078Z,100.00
2023-04-20T00:10:54.258Z,100.00
2023-04-20T00:13:24.465Z,100.00
2023-04-20T00:15:51.661Z,100.00
2023-04-20T00:18:20.646Z,100.00
2023-04-20T00:20:48.727Z,100.00
2023-04-20T00:23:16.707Z,100.00
2023-04-20T00:25:51.372Z,100.00
2023-04-20T00:28:21.304Z,100.00
2023-04-20T00:30:48.581Z,100.00
2023-04-20T00:33:18.718Z,100.00
2023-04-20T00:35:46.142Z,100.00
2023-04-20T00:38:15.450Z,100.00
2023-04-20T00:40:53.511Z,100.00
2023-04-20T00:43:31.185Z,100.00
2023-04-20T00:46:03.749Z,100.00
2023-04-20T00:48:34.300Z,100.00
2023-04-20T00:51:02.230Z,100.00
2023-04-20T00:53:34.134Z,100.00
2023-04-20T00:56:01.810Z,100.00
2023-04-20T00:58:31.736Z,100.00
2023-04-20T01:00:59.925Z,100.00
2023-04-20T01:03:31.960Z,100.00
2023-04-20T01:06:02.484Z,100.00
2023-04-20T01:08:33.426Z,100.00
2023-04-20T01:11:06.121Z,100.00
2023-04-20T01:13:38.585Z,100.00
2023-04-20T01:16:06.715Z,100.00
2023-04-20T01:18:48.484Z,100.00
2023-04-20T01:21:17.456Z,100.00
2023-04-20T01:23:46.395Z,100.00
2023-04-20T01:26:16.293Z,100.00
2023-04-20T01:28:44.982Z,100.00
2023-04-20T01:31:14.324Z,100.00
2023-04-20T01:33:44.374Z,100.00
2023-04-20T01:36:12.806Z,100.00
2023-04-20T01:38:40.448Z,100.00
2023-04-20T01:41:11.577Z,100.00
2023-04-20T01:43:39.740Z,100.00
2023-04-20T01:46:07.919Z,100.00
2023-04-20T01:48:37.251Z,100.00
2023-04-20T01:51:05.850Z,100.00
2023-04-20T01:53:39.038Z,100.00
2023-04-20T01:56:14.759Z,100.00
2023-04-20T01:58:44.804Z,100.00
2023-04-20T02:01:13.712Z,100.00
2023-04-20T02:03:43.256Z,100.00
2023-04-20T02:06:13.565Z,100.00
2023-04-20T02:08:47.528Z,100.00
2023-04-20T02:11:14.893Z,100.00
2023-04-20T02:13:43.474Z,100.00
2023-04-20T02:16:10.949Z,100.00
2023-04-20T02:18:41.132Z,100.00
2023-04-20T02:21:08.775Z,100.00
2023-04-20T02:23:39.158Z,100.00
2023-04-20T02:26:06.313Z,100.00
2023-04-20T02:28:34.646Z,100.00
2023-04-20T02:31:08.186Z,100.00
2023-04-20T02:33:35.627Z,100.00
2023-04-20T02:36:06.341Z,100.00
2023-04-20T02:38:38.542Z,100.00
2023-04-20T02:41:07.824Z,100.00
2023-04-20T02:43:36.598Z,100.00
2023-04-20T02:46:05.259Z,100.00
2023-04-20T02:48:37.534Z,100.00
2023-04-20T02:51:07.360Z,100.00
2023-04-20T02:53:43.538Z,100.00
2023-04-20T02:56:22.051Z,100.00
2023-04-20T02:59:01.197Z,100.00
2023-04-20T03:01:47.902Z,100.00
2023-04-20T03:04:22.376Z,100.00
2023-04-20T03:07:11.124Z,100.00
2023-04-20T03:09:41.756Z,100.00
2023-04-20T03:12:43.197Z,100.00
2023-04-20T03:15:32.011Z,100.00
2023-04-20T03:18:26.698Z,100.00
2023-04-20T03:20:56.039Z,100.00
2023-04-20T03:23:23.569Z,100.00
2023-04-20T03:25:58.434Z,100.00
2023-04-20T03:28:36.560Z,100.00
2023-04-20T03:31:06.689Z,100.00
2023-04-20T03:33:34.540Z,100.00
2023-04-20T03:36:07.310Z,100.00
2023-04-20T03:38:37.199Z,100.00
2023-04-20T03:41:06.547Z,100.00
2023-04-20T03:43:34.112Z,100.00
2023-04-20T03:46:01.766Z,100.00
2023-04-20T03:48:30.378Z,100.00
2023-04-20T03:50:59.179Z,100.00
2023-04-20T03:53:26.745Z,100.00
2023-04-20T03:55:57.394Z,100.00
2023-04-20T03:58:27.817Z,100.00
2023-04-20T04:01:14.715Z,100.00
2023-04-20T04:04:02.136Z,100.00
2023-04-20T04:06:33.383Z,100.00
2023-04-20T04:09:00.858Z,100.00
2023-04-20T04:11:30.471Z,100.00
2023-04-20T04:13:59.451Z,100.00
2023-04-20T04:16:42.964Z,100.00
2023-04-20T04:19:13.407Z,100.00
2023-04-20T04:21:42.906Z,100.00
2023-04-20T04:24:10.891Z,100.00
2023-04-20T04:26:56.790Z,100.00
2023-04-20T04:29:28.352Z,100.00
2023-04-20T04:32:05.624Z,100.00
2023-04-20T04:34:41.053Z,100.00
2023-04-20T04:37:09.456Z,100.00
2023-04-20T04:39:57.742Z,100.00
2023-04-20T04:42:35.350Z,100.00
2023-04-20T04:45:08.507Z,100.00
2023-04-20T04:47:37.800Z,100.00
2023-04-20T04:50:10.141Z,100.00
2023-04-20T04:52:41.086Z,100.00
2023-04-20T04:55:09.945Z,100.00
2023-04-20T04:57:40.290Z,100.00
2023-04-20T05:00:14.881Z,100.00
2023-04-20T05:02:46.814Z,100.00
2023-04-20T05:05:21.768Z,100.00
2023-04-20T05:07:52.993Z,100.00
2023-04-20T05:10:21.483Z,100.00
2023-04-20T05:12:52.779Z,100.00
2023-04-20T05:15:21.522Z,100.00
2023-04-20T05:17:51.194Z,100.00
2023-04-20T05:20:24.545Z,100.00
2023-04-20T05:22:56.720Z,100.00
2023-04-20T05:25:30.199Z,100.00
2023-04-20T05:28:02.160Z,100.00
2023-04-20T05:30:32.189Z,100.00
2023-04-20T05:33:02.730Z,100.00
2023-04-20T05:35:36.470Z,100.00
2023-04-20T05:38:09.622Z,100.00
2023-04-20T05:40:37.492Z,100.00
2023-04-20T05:43:07.624Z,100.00
2023-04-20T05:45:35.323Z,100.00
2023-04-20T05:48:08.861Z,100.00
2023-04-20T05:50:36.663Z,100.00
2023-04-20T05:53:04.741Z,100.00
2023-04-20T05:55:36.907Z,100.00
2023-04-20T05:58:07.110Z,100.00
2023-04-20T06:00:36.759Z,100.00
2023-04-20T06:03:07.519Z,100.00
2023-04-20T06:05:35.674Z,100.00
2023-04-20T06:08:06.839Z,100.00
2023-04-20T06:10:35.181Z,100.00
2023-04-20T06:13:07.385Z,100.00
2023-04-20T06:15:34.605Z,100.00
2023-04-20T06:18:11.398Z,100.00
2023-04-20T06:20:39.602Z,100.00
2023-04-20T06:23:11.334Z,100.00
2023-04-20T06:25:41.151Z,100.00
2023-04-20T06:28:11.502Z,100.00
2023-04-20T06:30:40.088Z,100.00
2023-04-20T06:33:08.421Z,100.00
2023-04-20T06:35:44.450Z,100.00
2023-04-20T06:38:17.286Z,100.00
2023-04-20T06:40:48.336Z,100.00
2023-04-20T06:43:17.336Z,100.00
2023-04-20T06:45:50.042Z,100.00
2023-04-20T06:48:31.491Z,100.00
2023-04-20T06:51:03.460Z,100.00
2023-04-20T06:53:33.808Z,100.00
2023-04-20T06:56:01.737Z,100.00
2023-04-20T06:58:31.408Z,100.00
2023-04-20T07:01:02.788Z,100.00
2023-04-20T07:03:31.598Z,100.00
2023-04-20T07:05:59.751Z,100.00
2023-04-20T07:08:34.378Z,100.00
2023-04-20T07:11:02.270Z,100.00
2023-04-20T07:13:36.540Z,100.00
2023-04-20T07:16:10.192Z,100.00
2023-04-20T07:18:39.638Z,100.00
2023-04-20T07:21:07.625Z,100.00
2023-04-20T07:23:36.714Z,100.00
2023-04-20T07:26:04.355Z,100.00
2023-04-20T07:28:33.596Z,100.00
2023-04-20T07:31:03.703Z,100.00
2023-04-20T07:33:32.486Z,100.00
2023-04-20T07:36:00.746Z,100.00
2023-04-20T07:38:28.180Z,100.00
2023-04-20T07:40:58.271Z,100.00
2023-04-20T07:43:25.667Z,100.00
2023-04-20T07:45:53.070Z,100.00
2023-04-20T07:48:30.592Z,100.00
2023-04-20T07:51:01.500Z,100.00
2023-04-20T07:53:30.948Z,100.00
2023-04-20T07:56:03.240Z,100.00
2023-04-20T07:58:31.023Z,100.00
2023-04-20T08:00:58.711Z,100.00
2023-04-20T08:03:29.176Z,100.00
2023-04-20T08:05:56.713Z,100.00
2023-04-20T08:08:24.200Z,100.00
2023-04-20T08:10:57.014Z,100.00
2023-04-20T08:13:26.434Z,100.00
2023-04-20T08:15:54.006Z,100.00
2023-04-20T08:18:22.447Z,100.00
2023-04-20T08:20:56.172Z,100.00
2023-04-20T08:23:29.461Z,100.00
2023-04-20T08:25:58.058Z,100.00
2023-04-20T08:28:33.441Z,100.00
2023-04-20T08:31:02.536Z,100.00
2023-04-20T08:33:35.570Z,100.00
2023-04-20T08:36:03.439Z,99.42
2023-04-20T08:38:38.265Z,94.26
2023-04-20T08:41:06.242Z,91.25
2023-04-20T08:46:17.728Z,89.72
2023-04-20T08:48:48.949Z,90.81
2023-04-20T08:51:17.324Z,87.78
2023-04-20T08:53:48.790Z,88.59
2023-04-20T08:56:18.715Z,94.27
2023-04-20T08:58:49.863Z,94.25
2023-04-20T09:01:34.733Z,100.00
2023-04-20T09:04:32.836Z,100.00
2023-04-20T09:07:04.088Z,99.98
2023-04-20T09:09:31.578Z,87.22
2023-04-20T09:12:07.330Z,75.34
2023-04-20T09:14:45.325Z,75.02
2023-04-20T09:17:14.857Z,68.08
2023-04-20T09:19:44.269Z,61.71
2023-04-20T09:22:11.883Z,54.11
2023-04-20T09:24:40.938Z,55.35
2023-04-20T09:27:17.374Z,53.31
2023-04-20T09:29:46.255Z,51.40
2023-04-20T09:32:25.118Z,50.79
2023-04-20T09:34:52.517Z,51.10
2023-04-20T09:37:20.104Z,49.36
2023-04-20T09:39:47.616Z,48.22
2023-04-20T09:42:15.843Z,49.16
2023-04-20T09:44:46.998Z,49.96
2023-04-20T09:47:18.701Z,49.92
2023-04-20T09:49:49.289Z,54.78
2023-04-20T09:52:18.524Z,59.84
2023-04-20T09:54:48.920Z,59.74
2023-04-20T09:57:19.327Z,64.71
2023-04-20T09:59:47.160Z,64.50
2023-04-20T10:02:14.856Z,68.09
2023-04-20T10:04:55.885Z,71.06
2023-04-20T10:07:27.213Z,65.46
2023-04-20T10:10:08.146Z,61.89
2023-04-20T10:12:47.086Z,58.00
2023-04-20T10:15:14.423Z,56.14
2023-04-20T10:17:41.756Z,54.40
2023-04-20T10:20:39.374Z,54.99
2023-04-20T10:23:15.723Z,57.34
2023-04-20T10:25:45.131Z,57.86
2023-04-20T10:28:12.174Z,63.91
2023-04-20T10:30:52.905Z,63.68
2023-04-20T10:33:20.452Z,64.71
2023-04-20T10:35:49.179Z,61.36
2023-04-20T10:38:16.583Z,62.75
2023-04-20T10:40:44.059Z,63.81
2023-04-20T10:43:21.487Z,68.93
2023-04-20T10:45:50.173Z,64.57
2023-04-20T10:48:18.348Z,67.70
2023-04-20T10:50:46.171Z,77.31
2023-04-20T10:53:23.211Z,65.92
2023-04-20T10:56:00.299Z,64.68
2023-04-20T10:58:27.561Z,65.39
2023-04-20T11:01:01.170Z,65.02
2023-04-20T11:03:31.527Z,64.24
2023-04-20T11:06:03.968Z,59.88
2023-04-20T11:08:38.820Z,63.25
2023-04-20T11:11:08.133Z,63.16
2023-04-20T11:13:36.166Z,65.00
2023-04-20T11:16:10.609Z,65.93
2023-04-20T11:18:46.286Z,67.71
2023-04-20T11:21:13.823Z,66.45
2023-04-20T11:23:42.013Z,72.29
2023-04-20T11:26:09.416Z,70.79
2023-04-20T11:28:36.822Z,72.33
2023-04-20T11:31:04.262Z,73.22
2023-04-20T11:33:31.800Z,76.15
2023-04-20T11:35:59.575Z,78.45
2023-04-20T11:38:35.504Z,76.24
2023-04-20T11:41:06.917Z,70.61
2023-04-20T11:43:43.572Z,70.43
2023-04-20T11:46:15.345Z,69.10
2023-04-20T11:48:42.963Z,68.81
2023-04-20T11:51:10.533Z,69.65
2023-04-20T11:53:38.196Z,70.46
2023-04-20T11:56:07.798Z,67.33
2023-04-20T11:58:34.737Z,66.31
2023-04-20T12:01:02.380Z,67.60
2023-04-20T12:03:29.466Z,64.90
2023-04-20T12:05:57.044Z,69.17
2023-04-20T12:08:24.825Z,69.24
2023-04-20T12:10:52.164Z,69.59
2023-04-20T12:13:19.164Z,71.90
2023-04-20T12:15:46.521Z,67.95
2023-04-20T12:18:16.053Z,65.26
2023-04-20T12:20:43.587Z,64.90
2023-04-20T12:23:10.670Z,62.83
2023-04-20T12:25:41.208Z,65.63
2023-04-20T12:28:08.198Z,67.12
2023-04-20T12:30:35.771Z,68.51
2023-04-20T12:33:03.598Z,67.11
2023-04-20T12:35:33.308Z,61.68
2023-04-20T12:38:00.460Z,65.40
2023-04-20T12:40:28.439Z,63.14
2023-04-20T12:42:55.400Z,65.81
2023-04-20T12:45:22.949Z,64.55
2023-04-20T12:47:50.191Z,65.24
2023-04-20T12:50:18.717Z,63.89
2023-04-20T12:52:46.168Z,65.65
2023-04-20T12:55:14.465Z,66.81
2023-04-20T12:57:41.744Z,65.98
2023-04-20T13:00:11.265Z,63.08
2023-04-20T13:02:39.441Z,63.66
2023-04-20T13:05:09.345Z,64.17
2023-04-20T13:07:36.406Z,62.65
2023-04-20T13:10:04.137Z,60.96
2023-04-20T13:12:31.141Z,63.60
2023-04-20T13:14:58.393Z,64.93
2023-04-20T13:17:25.418Z,62.52
2023-04-20T13:19:52.806Z,63.88
2023-04-20T13:22:21.453Z,63.85
2023-04-20T13:24:48.694Z,60.73
2023-04-20T13:27:18.218Z,62.49
2023-04-20T13:29:46.693Z,64.18
2023-04-20T13:32:16.073Z,62.28
2023-04-20T13:34:43.555Z,64.69
2023-04-20T13:37:10.732Z,64.32
2023-04-20T13:39:38.413Z,62.77
2023-04-20T13:42:05.725Z,63.08
2023-04-20T13:44:33.841Z,62.35
2023-04-20T13:47:02.174Z,61.35
2023-04-20T13:49:31.091Z,59.49
2023-04-20T13:51:58.246Z,64.13
2023-04-20T13:54:25.985Z,62.28
2023-04-20T13:56:56.066Z,65.05
2023-04-20T13:59:25.899Z,62.99
2023-04-20T14:01:52.913Z,62.14
2023-04-20T14:04:20.532Z,61.95
2023-04-20T14:06:50.462Z,62.65
2023-04-20T14:09:18.556Z,63.56
2023-04-20T14:11:46.312Z,64.13
2023-04-20T14:14:13.706Z,63.53
2023-04-20T14:16:44.564Z,65.85
2023-04-20T14:19:12.027Z,65.42
2023-04-20T14:21:40.260Z,65.03
2023-04-20T14:24:07.932Z,64.62
2023-04-20T14:26:34.866Z,64.88
2023-04-20T14:29:03.255Z,63.62
2023-04-20T14:31:30.695Z,64.34
2023-04-20T14:34:02.802Z,63.90
2023-04-20T14:36:30.714Z,64.91
2023-04-20T14:38:58.025Z,65.95
2023-04-20T14:41:25.047Z,64.28
2023-04-20T14:43:52.654Z,66.58
2023-04-20T14:46:19.690Z,64.11
2023-04-20T14:48:47.312Z,66.45
2023-04-20T14:51:14.528Z,66.56
2023-04-20T14:53:42.285Z,63.73
2023-04-20T14:56:09.289Z,64.95
2023-04-20T14:58:37.871Z,62.29
2023-04-20T15:01:05.238Z,62.62
2023-04-20T15:03:33.289Z,63.26
2023-04-20T15:06:01.654Z,64.68
2023-04-20T15:08:29.209Z,64.35
2023-04-20T15:10:59.587Z,64.73
2023-04-20T15:13:26.865Z,66.47
2023-04-20T15:15:59.912Z,66.42
2023-04-20T15:18:27.315Z,66.57
2023-04-20T15:20:54.474Z,66.63
2023-04-20T15:23:22.241Z,69.46
2023-04-20T15:25:49.444Z,66.85
2023-04-20T15:28:16.876Z,67.50
2023-04-20T15:30:44.464Z,69.17
2023-04-20T15:33:11.883Z,70.03
2023-04-20T15:35:39.406Z,71.34
2023-04-20T15:38:06.927Z,70.61
2023-04-20T15:40:33.921Z,71.53
2023-04-20T15:43:02.962Z,72.00
2023-04-20T15:45:31.377Z,71.87
2023-04-20T15:48:01.021Z,69.75
2023-04-20T15:50:28.332Z,71.25
2023-04-20T15:52:55.858Z,73.23
2023-04-20T15:55:23.081Z,72.60
2023-04-20T15:57:50.409Z,74.58
2023-04-20T16:00:19.910Z,75.76
2023-04-20T16:02:47.381Z,72.75
2023-04-20T16:05:19.279Z,69.70
2023-04-20T16:07:46.915Z,71.00
2023-04-20T16:10:14.468Z,70.75
2023-04-20T16:12:41.822Z,70.77
2023-04-20T16:15:12.977Z,71.34
2023-04-20T16:17:45.384Z,73.25
2023-04-20T16:20:14.850Z,73.49
2023-04-20T16:22:42.528Z,72.68
2023-04-20T16:25:12.389Z,71.81
2023-04-20T16:27:43.068Z,70.36
2023-04-20T16:30:10.693Z,72.39
2023-04-20T16:32:39.164Z,69.66
2023-04-20T16:35:09.214Z,72.15
2023-04-20T16:37:41.127Z,71.69
2023-04-20T16:40:09.931Z,69.98
2023-04-20T16:42:37.429Z,70.10
2023-04-20T16:45:04.867Z,75.00
2023-04-20T16:47:32.621Z,74.54
2023-04-20T16:49:59.789Z,74.62
2023-04-20T16:52:31.340Z,74.99
2023-04-20T16:54:59.454Z,78.61
2023-04-20T16:57:29.023Z,79.12
2023-04-20T16:59:56.061Z,80.60
2023-04-20T17:02:25.522Z,82.86
2023-04-20T17:04:53.316Z,84.75
2023-04-20T17:07:21.554Z,84.45
2023-04-20T17:09:48.655Z,86.74
2023-04-20T17:12:16.270Z,85.91
2023-04-20T17:14:44.119Z,86.05
2023-04-20T17:17:12.132Z,89.70
2023-04-20T17:19:43.710Z,94.98
2023-04-20T17:22:13.998Z,92.39
2023-04-20T17:24:41.334Z,92.16
2023-04-20T17:27:08.693Z,91.35
2023-04-20T17:29:38.782Z,91.69
2023-04-20T17:32:10.262Z,94.59
2023-04-20T17:34:40.466Z,98.77
2023-04-20T17:37:12.172Z,100.00
2023-04-20T17:39:39.992Z,100.00
2023-04-20T17:42:08.077Z,100.00
2023-04-20T17:44:35.264Z,100.00
2023-04-20T17:47:02.919Z,100.00
2023-04-20T17:49:33.408Z,100.00
2023-04-20T17:52:01.155Z,100.00
2023-04-20T17:54:29.418Z,100.00
2023-04-20T17:56:58.892Z,100.00
2023-04-20T17:59:26.475Z,100.00
2023-04-20T18:01:54.678Z,100.00
2023-04-20T18:04:27.146Z,100.00
2023-04-20T18:06:55.563Z,100.00
2023-04-20T18:09:22.905Z,100.00
2023-04-20T18:11:50.534Z,100.00
2023-04-20T18:14:19.250Z,100.00
2023-04-20T18:16:52.234Z,100.00
2023-04-20T18:19:20.221Z,100.00
2023-04-20T18:21:52.306Z,100.00
2023-04-20T18:24:22.233Z,100.00
2023-04-20T18:26:52.256Z,100.00
2023-04-20T18:29:20.336Z,100.00
2023-04-20T18:31:50.800Z,100.00
2023-04-20T18:34:21.514Z,100.00
2023-04-20T18:36:51.803Z,100.00
2023-04-20T18:39:21.385Z,100.00
2023-04-20T18:41:52.312Z,100.00
2023-04-20T18:44:22.306Z,100.00
2023-04-20T18:46:56.760Z,100.00
2023-04-20T18:49:25.240Z,100.00
2023-04-20T18:51:54.764Z,100.00
2023-04-20T18:54:23.068Z,100.00
2023-04-20T18:56:58.310Z,100.00
2023-04-20T18:59:26.896Z,100.00
2023-04-20T19:01:56.545Z,100.00
2023-04-20T19:04:27.474Z,100.00
2023-04-20T19:06:56.007Z,100.00
2023-04-20T19:09:24.803Z,100.00
2023-04-20T19:11:59.318Z,100.00
2023-04-20T19:14:29.530Z,100.00
2023-04-20T19:16:58.844Z,100.00
2023-04-20T19:19:28.329Z,100.00
2023-04-20T19:21:59.986Z,100.00
2023-04-20T19:24:33.256Z,100.00
2023-04-20T19:27:02.880Z,100.00
2023-04-20T19:29:36.084Z,100.00
2023-04-20T19:32:11.611Z,100.00
2023-04-20T19:34:50.006Z,100.00
2023-04-20T19:37:20.961Z,100.00
2023-04-20T19:39:51.934Z,100.00
2023-04-20T19:42:26.173Z,100.00
2023-04-20T19:44:59.111Z,100.00
2023-04-20T19:47:29.518Z,100.00
2023-04-20T19:50:02.915Z,100.00
2023-04-20T19:52:36.089Z,100.00
2023-04-20T19:55:15.498Z,100.00
2023-04-20T19:57:50.464Z,100.00
2023-04-20T20:00:25.297Z,100.00
2023-04-20T20:02:58.920Z,100.00
2023-04-20T20:05:29.111Z,100.00
2023-04-20T20:07:59.220Z,100.00
2023-04-20T20:10:28.481Z,100.00
2023-04-20T20:13:05.450Z,100.00
2023-04-20T20:15:37.950Z,100.00
2023-04-20T20:18:06.992Z,100.00
2023-04-20T20:20:35.485Z,100.00
2023-04-20T20:23:06.938Z,100.00
2023-04-20T20:25:35.947Z,100.00
2023-04-20T20:28:04.586Z,100.00
2023-04-20T20:30:34.009Z,100.00
2023-04-20T20:33:07.085Z,100.00
2023-04-20T20:35:36.275Z,100.00
2023-04-20T20:38:09.071Z,100.00
2023-04-20T20:40:37.430Z,100.00
2023-04-20T20:43:11.750Z,100.00
2023-04-20T20:45:40.175Z,100.00
2023-04-20T20:48:11.195Z,100.00
2023-04-20T20:50:43.554Z,100.00
2023-04-20T20:53:17.626Z,100.00
2023-04-20T20:55:54.682Z,100.00
2023-04-20T20:58:25.549Z,100.00
2023-04-20T21:00:56.659Z,100.00
2023-04-20T21:03:30.217Z,100.00
2023-04-20T21:05:59.310Z,100.00
2023-04-20T21:08:29.911Z,100.00
2023-04-20T21:10:59.989Z,100.00
2023-04-20T21:13:27.621Z,100.00
2023-04-20T21:15:54.651Z,100.00
2023-04-20T21:18:23.625Z,100.00
2023-04-20T21:20:52.345Z,100.00
2023-04-20T21:23:24.323Z,100.00
2023-04-20T21:25:51.470Z,100.00
2023-04-20T21:28:22.780Z,100.00
2023-04-20T21:30:50.144Z,100.00
2023-04-20T21:33:27.636Z,100.00
2023-04-20T21:35:57.680Z,100.00
2023-04-20T21:38:27.576Z,100.00
2023-04-20T21:40:57.392Z,100.00
2023-04-20T21:43:24.754Z,100.00
2023-04-20T21:45:55.006Z,100.00
2023-04-20T21:48:34.179Z,100.00
2023-04-20T21:51:02.587Z,100.00
2023-04-20T21:53:33.823Z,100.00
2023-04-20T21:56:02.596Z,100.00
2023-04-20T21:58:30.513Z,100.00
2023-04-20T22:01:00.558Z,100.00
2023-04-20T22:06:13.834Z,100.00
2023-04-20T22:08:42.351Z,100.00
2023-04-20T22:11:12.884Z,100.00
2023-04-20T22:13:43.510Z,100.00
2023-04-20T22:16:16.284Z,100.00
2023-04-20T22:18:46.577Z,100.00
2023-04-20T22:21:20.159Z,100.00
2023-04-20T22:23:50.590Z,100.00
2023-04-20T22:26:19.474Z,100.00
2023-04-20T22:28:47.362Z,100.00
2023-04-20T22:31:18.740Z,100.00
2023-04-20T22:33:50.040Z,100.00
2023-04-20T22:36:20.406Z,100.00
2023-04-20T22:38:49.283Z,100.00
2023-04-20T22:41:17.636Z,100.00
2023-04-20T22:43:46.125Z,100.00
2023-04-20T22:46:16.991Z,100.00
2023-04-20T22:48:48.486Z,100.00
2023-04-20T22:51:20.322Z,100.00
2023-04-20T22:53:48.981Z,100.00
2023-04-20T22:56:19.241Z,100.00
2023-04-20T22:58:46.370Z,100.00
2023-04-20T23:01:16.679Z,100.00
2023-04-20T23:03:45.089Z,100.00
2023-04-20T23:06:18.848Z,100.00
2023-04-20T23:08:46.956Z,100.00
2023-04-20T23:11:17.230Z,100.00
2023-04-20T23:13:47.124Z,100.00
2023-04-20T23:16:16.217Z,100.00
2023-04-20T23:18:44.605Z,100.00
2023-04-20T23:21:14.170Z,100.00
2023-04-20T23:23:42.598Z,100.00
2023-04-20T23:26:12.428Z,100.00
2023-04-20T23:28:40.410Z,100.00
2023-04-20T23:31:12.693Z,100.00
2023-04-20T23:33:41.432Z,100.00
2023-04-20T23:36:12.351Z,100.00
2023-04-20T23:38:42.311Z,100.00
2023-04-20T23:41:10.684Z,100.00
2023-04-20T23:43:38.941Z,100.00
2023-04-20T23:46:10.252Z,100.00
2023-04-20T23:48:40.842Z,100.00
2023-04-20T23:51:09.208Z,100.00
2023-04-20T23:53:42.403Z,100.00
2023-04-20T23:56:09.889Z,100.00
2023-04-20T23:58:41.746Z,100.00
